createdAt,value
2017-03-27T00:00:08.536Z,7.70
2017-03-27T00:01:12.599Z,8.83
2017-03-27T00:02:16.698Z,9.13
2017-03-27T00:03:20.654Z,9.48
2017-03-27T00:04:24.646Z,12.98
2017-03-27T00:05:28.620Z,11.02
2017-03-27T00:06:32.241Z,11.77
2017-03-27T00:07:36.119Z,6.43
2017-03-27T00:08:40.870Z,9.65
2017-03-27T00:09:45.023Z,8.48
2017-03-27T00:10:49.071Z,11.60
2017-03-27T00:11:52.793Z,12.15
2017-03-27T00:12:56.599Z,14.82
2017-03-27T00:14:00.251Z,17.38
2017-03-27T00:15:04.271Z,13.90
2017-03-27T00:16:08.436Z,8.12
2017-03-27T00:17:12.086Z,14.42
2017-03-27T00:18:17.175Z,14.98
2017-03-27T00:19:21.535Z,15.23
2017-03-27T00:20:25.322Z,15.13
2017-03-27T00:21:29.222Z,16.40
2017-03-27T00:22:32.677Z,17.52
2017-03-27T00:23:36.392Z,15.70
2017-03-27T00:24:40.081Z,13.25
2017-03-27T00:25:43.777Z,13.63
2017-03-27T00:26:47.251Z,17.77
2017-03-27T00:27:50.886Z,14.17
2017-03-27T00:28:54.459Z,15.10
2017-03-27T00:29:58.352Z,17.70
2017-03-27T00:31:02.376Z,14.13
2017-03-27T00:32:06.580Z,11.05
2017-03-27T00:33:12.017Z,11.60
2017-03-27T00:34:15.825Z,10.73
2017-03-27T00:35:19.997Z,14.85
2017-03-27T00:36:23.993Z,13.57
2017-03-27T00:37:27.896Z,11.73
2017-03-27T00:38:31.590Z,14.63
2017-03-27T00:39:35.428Z,16.90
2017-03-27T00:40:39.361Z,17.28
2017-03-27T00:41:43.198Z,15.68
2017-03-27T00:42:47.754Z,16.40
2017-03-27T00:43:52.000Z,13.08
2017-03-27T00:44:56.239Z,11.57
2017-03-27T00:46:00.242Z,11.20
2017-03-27T00:47:04.062Z,12.42
2017-03-27T00:48:07.817Z,14.13
2017-03-27T00:49:11.766Z,12.12
2017-03-27T00:50:15.772Z,11.67
2017-03-27T00:51:19.689Z,10.73
2017-03-27T00:52:23.702Z,14.22
2017-03-27T00:53:27.486Z,14.72
2017-03-27T00:54:31.301Z,17.07
2017-03-27T00:55:35.094Z,19.53
2017-03-27T00:56:38.669Z,23.13
2017-03-27T00:57:42.258Z,27.53
2017-03-27T00:58:46.912Z,21.35
2017-03-27T00:59:50.997Z,20.92
2017-03-27T01:00:54.722Z,16.48
2017-03-27T01:01:59.141Z,15.68
2017-03-27T01:03:03.083Z,18.40
2017-03-27T01:04:07.497Z,17.12
2017-03-27T01:05:11.592Z,18.37
2017-03-27T01:06:15.281Z,22.25
2017-03-27T01:07:19.203Z,20.92
2017-03-27T01:08:23.194Z,29.35
2017-03-27T01:09:27.920Z,25.02
2017-03-27T01:10:31.585Z,25.35
2017-03-27T01:11:36.461Z,21.28
2017-03-27T01:12:40.628Z,22.67
2017-03-27T01:13:44.657Z,16.88
2017-03-27T01:14:48.341Z,20.65
2017-03-27T01:15:52.221Z,22.58
2017-03-27T01:16:56.015Z,27.60
2017-03-27T01:18:01.191Z,21.53
2017-03-27T01:19:04.962Z,60.32
2017-03-27T01:20:09.045Z,25.13
2017-03-27T01:21:13.262Z,20.60
2017-03-27T01:22:17.250Z,35.20
2017-03-27T01:23:21.344Z,35.23
2017-03-27T01:24:24.989Z,28.32
2017-03-27T01:25:29.098Z,34.03
2017-03-27T01:26:33.658Z,20.32
2017-03-27T01:27:37.357Z,20.52
2017-03-27T01:28:41.172Z,23.23
2017-03-27T01:29:44.897Z,21.07
2017-03-27T01:30:48.772Z,12.70
2017-03-27T01:31:52.788Z,11.43
2017-03-27T01:32:57.629Z,8.97
2017-03-27T01:34:01.521Z,8.37
2017-03-27T01:35:06.077Z,7.85
2017-03-27T01:36:10.388Z,9.77
2017-03-27T01:37:13.691Z,8.55
2017-03-27T01:38:17.529Z,9.97
2017-03-27T01:39:21.496Z,10.25
2017-03-27T01:40:25.409Z,9.30
2017-03-27T01:41:28.668Z,6.90
2017-03-27T01:42:32.177Z,6.98
2017-03-27T01:43:37.514Z,9.18
2017-03-27T01:44:42.256Z,9.77
2017-03-27T01:45:46.411Z,8.10
2017-03-27T01:46:49.624Z,11.55
2017-03-27T01:47:53.605Z,8.40
2017-03-27T01:48:57.401Z,14.00
2017-03-27T01:50:02.047Z,9.17
2017-03-27T01:51:05.982Z,9.72
2017-03-27T01:52:10.044Z,12.28
2017-03-27T01:53:13.805Z,11.77
2017-03-27T01:54:17.650Z,11.05
2017-03-27T01:55:21.378Z,9.45
2017-03-27T01:56:25.897Z,9.45
2017-03-27T01:57:29.841Z,11.30
2017-03-27T01:58:33.570Z,11.15
2017-03-27T01:59:37.486Z,14.27
2017-03-27T02:00:41.177Z,18.13
2017-03-27T02:01:45.861Z,15.78
2017-03-27T02:02:49.713Z,17.28
2017-03-27T02:03:53.728Z,17.02
2017-03-27T02:04:57.584Z,9.42
2017-03-27T02:06:01.541Z,13.88
2017-03-27T02:07:05.739Z,13.47
2017-03-27T02:08:09.756Z,13.22
2017-03-27T02:09:13.497Z,10.63
2017-03-27T02:10:18.107Z,13.15
2017-03-27T02:11:21.786Z,13.22
2017-03-27T02:12:26.017Z,9.70
2017-03-27T02:13:30.552Z,6.82
2017-03-27T02:14:34.431Z,4.37
2017-03-27T02:15:38.276Z,3.88
2017-03-27T02:16:42.096Z,4.57
2017-03-27T02:17:45.970Z,5.28
2017-03-27T02:18:50.085Z,6.57
2017-03-27T02:19:54.150Z,6.00
2017-03-27T02:20:58.567Z,6.02
2017-03-27T02:22:03.469Z,7.83
2017-03-27T02:23:07.585Z,9.18
2017-03-27T02:24:12.111Z,8.93
2017-03-27T02:25:16.292Z,10.03
2017-03-27T02:26:20.739Z,9.17
2017-03-27T02:27:24.706Z,12.65
2017-03-27T02:28:28.774Z,10.83
2017-03-27T02:29:32.904Z,12.93
2017-03-27T02:30:36.705Z,16.87
2017-03-27T02:31:40.249Z,18.32
2017-03-27T02:32:43.721Z,18.03
2017-03-27T02:33:47.886Z,19.70
2017-03-27T02:34:51.767Z,23.35
2017-03-27T02:35:56.472Z,29.97
2017-03-27T02:37:00.227Z,30.50
2017-03-27T02:38:03.889Z,34.88
2017-03-27T02:39:07.902Z,32.35
2017-03-27T02:40:12.815Z,25.33
2017-03-27T02:41:16.406Z,28.60
2017-03-27T02:42:20.722Z,24.35
2017-03-27T02:43:24.482Z,20.83
2017-03-27T02:44:29.936Z,20.58
2017-03-27T02:45:34.026Z,24.12
2017-03-27T02:46:38.514Z,24.17
2017-03-27T02:47:42.345Z,26.42
2017-03-27T02:48:46.059Z,24.38
2017-03-27T02:49:50.177Z,20.22
2017-03-27T02:50:53.741Z,21.23
2017-03-27T02:51:57.710Z,14.03
2017-03-27T02:53:01.406Z,15.13
2017-03-27T02:54:04.810Z,20.60
2017-03-27T02:55:08.857Z,20.93
2017-03-27T02:56:12.762Z,14.15
2017-03-27T02:57:16.558Z,12.58
2017-03-27T02:58:20.580Z,12.77
2017-03-27T02:59:24.472Z,14.18
2017-03-27T03:00:28.338Z,11.00
2017-03-27T03:01:32.884Z,13.32
2017-03-27T03:02:36.627Z,11.75
2017-03-27T03:03:40.507Z,9.97
2017-03-27T03:04:44.116Z,10.32
2017-03-27T03:05:48.149Z,8.25
2017-03-27T03:06:52.363Z,7.73
2017-03-27T03:07:56.920Z,11.60
2017-03-27T03:09:01.505Z,6.98
2017-03-27T03:10:05.571Z,9.17
2017-03-27T03:11:12.481Z,6.62
2017-03-27T03:12:16.149Z,6.40
2017-03-27T03:13:19.702Z,4.73
2017-03-27T03:14:23.350Z,8.45
2017-03-27T03:15:27.775Z,11.10
2017-03-27T03:16:31.509Z,7.35
2017-03-27T03:17:35.883Z,6.97
2017-03-27T03:18:39.872Z,7.50
2017-03-27T03:19:43.495Z,8.88
2017-03-27T03:20:47.737Z,13.02
2017-03-27T03:21:51.865Z,12.97
2017-03-27T03:22:56.593Z,12.42
2017-03-27T03:24:00.481Z,17.15
2017-03-27T03:25:03.691Z,23.93
2017-03-27T03:26:07.467Z,16.60
2017-03-27T03:27:11.489Z,13.17
2017-03-27T03:28:15.481Z,15.28
2017-03-27T03:29:19.257Z,17.67
2017-03-27T03:30:23.837Z,17.23
2017-03-27T03:31:27.811Z,18.07
2017-03-27T03:32:30.969Z,14.15
2017-03-27T03:33:35.049Z,13.85
2017-03-27T03:34:38.867Z,11.52
2017-03-27T03:35:42.764Z,17.23
2017-03-27T03:36:46.426Z,15.05
2017-03-27T03:37:51.181Z,17.97
2017-03-27T03:38:54.876Z,15.67
2017-03-27T03:39:58.680Z,11.63
2017-03-27T03:41:01.884Z,9.75
2017-03-27T03:42:05.836Z,10.93
2017-03-27T03:43:09.556Z,9.55
2017-03-27T03:44:13.462Z,10.87
2017-03-27T03:45:18.527Z,11.88
2017-03-27T03:46:23.061Z,10.47
2017-03-27T03:47:27.105Z,15.48
2017-03-27T03:48:30.877Z,11.45
2017-03-27T03:49:34.712Z,11.30
2017-03-27T03:50:38.701Z,12.75
2017-03-27T03:51:42.277Z,12.50
2017-03-27T03:52:46.426Z,8.02
2017-03-27T03:53:50.358Z,8.38
2017-03-27T03:54:53.768Z,11.82
2017-03-27T03:55:57.421Z,13.52
2017-03-27T03:57:01.293Z,15.82
2017-03-27T03:58:05.159Z,12.70
2017-03-27T03:59:08.937Z,11.58
2017-03-27T04:00:13.048Z,9.08
2017-03-27T04:01:16.978Z,17.67
2017-03-27T04:02:26.745Z,14.37
2017-03-27T04:03:40.725Z,20.23
2017-03-27T04:04:46.986Z,16.30
2017-03-27T04:05:50.838Z,15.27
2017-03-27T04:06:54.908Z,19.50
2017-03-27T04:07:58.595Z,19.77
2017-03-27T04:09:03.255Z,13.40
2017-03-27T04:10:07.252Z,14.07
2017-03-27T04:11:10.886Z,14.58
2017-03-27T04:12:14.675Z,20.92
2017-03-27T04:13:18.394Z,13.07
2017-03-27T04:14:22.402Z,13.38
2017-03-27T04:15:26.408Z,14.47
2017-03-27T04:16:44.525Z,18.00
2017-03-27T04:17:48.470Z,21.25
2017-03-27T04:18:52.313Z,11.60
2017-03-27T04:19:56.245Z,20.38
2017-03-27T04:21:00.042Z,18.77
2017-03-27T04:22:03.700Z,13.75
2017-03-27T04:23:08.735Z,11.45
2017-03-27T04:24:12.417Z,18.57
2017-03-27T04:25:16.220Z,25.07
2017-03-27T04:26:20.305Z,27.48
2017-03-27T04:27:24.059Z,29.38
2017-03-27T04:28:27.661Z,36.13
2017-03-27T04:29:32.287Z,36.33
2017-03-27T04:30:36.185Z,24.95
2017-03-27T04:31:39.950Z,30.93
2017-03-27T04:32:43.676Z,35.07
2017-03-27T04:33:47.734Z,40.92
2017-03-27T04:34:51.312Z,33.92
2017-03-27T04:35:54.889Z,35.88
2017-03-27T04:36:58.789Z,32.15
2017-03-27T04:38:02.599Z,26.43
2017-03-27T04:39:06.657Z,22.67
2017-03-27T04:40:10.255Z,20.82
2017-03-27T04:41:14.364Z,29.02
2017-03-27T04:42:18.295Z,17.62
2017-03-27T04:43:22.420Z,25.50
2017-03-27T04:44:26.126Z,30.37
2017-03-27T04:45:30.988Z,20.53
2017-03-27T04:46:34.838Z,24.83
2017-03-27T04:47:38.922Z,22.68
2017-03-27T04:48:42.307Z,25.40
2017-03-27T04:49:46.954Z,19.75
2017-03-27T04:50:50.942Z,21.38
2017-03-27T04:51:55.073Z,24.27
2017-03-27T04:52:58.758Z,12.47
2017-03-27T04:54:02.577Z,23.28
2017-03-27T04:55:06.374Z,16.85
2017-03-27T04:56:09.957Z,28.65
2017-03-27T04:57:13.584Z,24.75
2017-03-27T04:58:18.152Z,30.47
2017-03-27T04:59:22.325Z,19.12
2017-03-27T05:00:26.749Z,20.67
2017-03-27T05:01:30.927Z,22.15
2017-03-27T05:02:34.675Z,19.92
2017-03-27T05:03:38.535Z,13.38
2017-03-27T05:04:42.349Z,22.33
2017-03-27T05:05:46.612Z,16.13
2017-03-27T05:06:50.701Z,12.88
2017-03-27T05:07:54.349Z,11.70
2017-03-27T05:08:58.168Z,11.82
2017-03-27T05:10:01.734Z,12.90
2017-03-27T05:11:05.690Z,14.70
2017-03-27T05:12:10.969Z,14.00
2017-03-27T05:13:15.038Z,18.83
2017-03-27T05:14:19.092Z,16.42
2017-03-27T05:15:23.688Z,9.32
2017-03-27T05:16:27.594Z,14.88
2017-03-27T05:17:31.277Z,10.87
2017-03-27T05:18:34.997Z,11.65
2017-03-27T05:19:39.100Z,12.35
2017-03-27T05:20:42.894Z,10.22
2017-03-27T05:21:46.640Z,10.87
2017-03-27T05:22:50.452Z,10.50
2017-03-27T05:23:54.134Z,9.98
2017-03-27T05:24:58.185Z,7.97
2017-03-27T05:26:02.109Z,9.18
2017-03-27T05:27:06.050Z,9.60
2017-03-27T05:28:10.059Z,9.18
2017-03-27T05:29:13.916Z,8.30
2017-03-27T05:30:17.648Z,7.42
2017-03-27T05:31:20.831Z,6.17
2017-03-27T05:32:24.666Z,7.53
2017-03-27T05:33:28.443Z,5.38
2017-03-27T05:34:32.429Z,6.15
2017-03-27T05:35:36.260Z,6.47
2017-03-27T05:36:40.087Z,6.28
2017-03-27T05:37:44.010Z,8.27
2017-03-27T05:38:47.916Z,5.55
2017-03-27T05:39:51.400Z,9.10
2017-03-27T05:40:55.505Z,6.42
2017-03-27T05:41:59.160Z,8.67
2017-03-27T05:43:02.987Z,6.93
2017-03-27T05:44:06.904Z,9.35
2017-03-27T05:45:10.708Z,10.98
2017-03-27T05:46:15.943Z,6.63
2017-03-27T05:47:19.846Z,7.02
2017-03-27T05:48:23.673Z,4.48
2017-03-27T05:49:28.022Z,3.73
2017-03-27T05:50:31.882Z,3.30
2017-03-27T05:51:35.795Z,2.75
2017-03-27T05:52:39.649Z,3.43
2017-03-27T05:53:43.358Z,4.62
2017-03-27T05:54:47.020Z,5.62
2017-03-27T05:55:50.673Z,4.25
2017-03-27T05:56:54.375Z,3.85
2017-03-27T05:57:58.024Z,4.87
2017-03-27T05:59:02.058Z,7.07
2017-03-27T06:00:06.513Z,7.45
2017-03-27T06:01:10.542Z,5.53
2017-03-27T06:02:14.229Z,6.68
2017-03-27T06:03:18.520Z,8.22
2017-03-27T06:04:22.194Z,7.83
2017-03-27T06:05:26.977Z,17.63
2017-03-27T06:06:30.971Z,10.08
2017-03-27T06:07:35.551Z,17.80
2017-03-27T06:08:39.264Z,19.08
2017-03-27T06:09:43.014Z,14.13
2017-03-27T06:10:47.030Z,10.55
2017-03-27T06:11:50.837Z,11.35
2017-03-27T06:12:54.999Z,12.47
2017-03-27T06:13:59.129Z,10.58
2017-03-27T06:15:03.001Z,15.68
2017-03-27T06:16:06.851Z,7.87
2017-03-27T06:17:10.867Z,8.40
2017-03-27T06:18:14.821Z,5.18
2017-03-27T06:19:18.561Z,5.02
2017-03-27T06:20:22.502Z,16.57
2017-03-27T06:21:26.241Z,14.95
2017-03-27T06:22:30.018Z,11.18
2017-03-27T06:23:33.954Z,9.78
2017-03-27T06:24:38.083Z,10.23
2017-03-27T06:25:41.923Z,10.65
2017-03-27T06:26:45.867Z,11.90
2017-03-27T06:27:50.573Z,11.60
2017-03-27T06:28:54.373Z,13.60
2017-03-27T06:29:58.990Z,11.15
2017-03-27T06:31:03.044Z,12.97
2017-03-27T06:32:07.063Z,13.12
2017-03-27T06:33:10.884Z,13.33
2017-03-27T06:34:15.338Z,11.08
2017-03-27T06:35:19.253Z,13.32
2017-03-27T06:36:23.054Z,12.05
2017-03-27T06:37:28.015Z,17.55
2017-03-27T06:38:32.087Z,10.83
2017-03-27T06:39:35.996Z,13.65
2017-03-27T06:40:39.773Z,15.07
2017-03-27T06:41:43.509Z,16.82
2017-03-27T06:42:48.281Z,11.13
2017-03-27T06:43:52.062Z,18.65
2017-03-27T06:44:55.962Z,8.52
2017-03-27T06:46:00.394Z,11.20
2017-03-27T06:47:05.195Z,9.22
2017-03-27T06:48:08.864Z,12.20
2017-03-27T06:49:12.590Z,12.75
2017-03-27T06:50:16.353Z,12.77
2017-03-27T06:51:20.372Z,5.13
2017-03-27T06:52:23.977Z,10.93
2017-03-27T06:53:27.847Z,13.83
2017-03-27T06:54:31.671Z,13.28
2017-03-27T06:55:35.845Z,6.68
2017-03-27T06:56:39.550Z,10.58
2017-03-27T06:57:43.270Z,11.50
2017-03-27T06:58:46.852Z,9.18
2017-03-27T06:59:50.611Z,10.90
2017-03-27T07:00:54.856Z,9.72
2017-03-27T07:01:58.647Z,9.37
2017-03-27T07:03:02.604Z,11.90
2017-03-27T07:04:06.442Z,15.15
2017-03-27T07:05:11.177Z,12.30
2017-03-27T07:06:14.982Z,9.37
2017-03-27T07:07:18.860Z,7.40
2017-03-27T07:08:22.638Z,10.02
2017-03-27T07:09:26.843Z,7.88
2017-03-27T07:10:30.846Z,8.65
2017-03-27T07:11:34.840Z,6.28
2017-03-27T07:12:38.731Z,9.42
2017-03-27T07:13:42.612Z,8.00
2017-03-27T07:14:47.170Z,10.53
2017-03-27T07:15:50.767Z,7.52
2017-03-27T07:16:54.661Z,10.87
2017-03-27T07:17:58.477Z,6.88
2017-03-27T07:19:02.329Z,13.42
2017-03-27T07:20:06.251Z,5.75
2017-03-27T07:21:10.055Z,6.20
2017-03-27T07:22:13.841Z,9.42
2017-03-27T07:23:17.521Z,10.75
2017-03-27T07:24:21.397Z,15.77
2017-03-27T07:25:25.206Z,10.78
2017-03-27T07:26:28.369Z,12.68
2017-03-27T07:27:32.128Z,13.28
2017-03-27T07:28:35.650Z,12.63
2017-03-27T07:29:39.447Z,10.12
2017-03-27T07:30:43.124Z,7.90
2017-03-27T07:31:46.872Z,11.30
2017-03-27T07:32:50.827Z,14.52
2017-03-27T07:33:54.829Z,12.08
2017-03-27T07:34:58.469Z,20.88
2017-03-27T07:36:02.484Z,16.78
2017-03-27T07:37:07.398Z,14.13
2017-03-27T07:38:11.335Z,12.47
2017-03-27T07:39:14.983Z,13.78
2017-03-27T07:40:18.620Z,11.77
2017-03-27T07:41:22.646Z,16.38
2017-03-27T07:42:26.447Z,14.62
2017-03-27T07:43:30.431Z,10.72
2017-03-27T07:44:34.019Z,8.65
2017-03-27T07:45:37.879Z,10.55
2017-03-27T07:46:41.605Z,9.88
2017-03-27T07:47:46.200Z,6.43
2017-03-27T07:48:50.221Z,14.83
2017-03-27T07:49:53.970Z,8.78
2017-03-27T07:50:57.079Z,11.68
2017-03-27T07:52:00.834Z,10.32
2017-03-27T07:53:04.293Z,7.82
2017-03-27T07:54:08.139Z,11.20
2017-03-27T07:55:12.186Z,15.70
2017-03-27T07:56:15.979Z,14.43
2017-03-27T07:57:19.858Z,17.25
2017-03-27T07:58:23.929Z,14.25
2017-03-27T07:59:27.655Z,13.05
2017-03-27T08:00:31.532Z,12.00
2017-03-27T08:01:35.627Z,9.73
2017-03-27T08:02:39.625Z,14.17
2017-03-27T08:03:43.314Z,13.13
2017-03-27T08:04:47.126Z,18.48
2017-03-27T08:05:50.842Z,13.03
2017-03-27T08:06:54.623Z,8.47
2017-03-27T08:07:58.147Z,6.17
2017-03-27T08:09:02.828Z,7.92
2017-03-27T08:10:07.632Z,11.70
2017-03-27T08:11:11.536Z,14.15
2017-03-27T08:12:15.300Z,10.15
2017-03-27T08:13:19.312Z,4.93
2017-03-27T08:14:23.103Z,12.13
2017-03-27T08:15:26.934Z,7.83
2017-03-27T08:16:30.621Z,11.57
2017-03-27T08:17:34.733Z,13.63
2017-03-27T08:18:38.998Z,13.25
2017-03-27T08:19:42.980Z,8.95
2017-03-27T08:20:46.765Z,7.30
2017-03-27T08:21:50.572Z,11.97
2017-03-27T08:22:54.430Z,10.22
2017-03-27T08:23:58.751Z,16.28
2017-03-27T08:25:02.488Z,12.38
2017-03-27T08:26:06.319Z,9.78
2017-03-27T08:27:10.188Z,14.90
2017-03-27T08:28:14.255Z,8.65
2017-03-27T08:29:18.273Z,8.23
2017-03-27T08:30:22.009Z,6.20
2017-03-27T08:31:25.754Z,5.57
2017-03-27T08:32:29.784Z,10.15
2017-03-27T08:33:33.558Z,8.23
2017-03-27T08:34:37.441Z,9.42
2017-03-27T08:35:41.497Z,9.42
2017-03-27T08:36:45.429Z,16.03
2017-03-27T08:37:49.978Z,13.43
2017-03-27T08:38:53.868Z,7.17
2017-03-27T08:39:57.623Z,5.15
2017-03-27T08:41:01.382Z,8.83
2017-03-27T08:42:04.988Z,14.47
2017-03-27T08:43:08.869Z,5.07
2017-03-27T08:44:12.847Z,7.77
2017-03-27T08:45:16.543Z,8.12
2017-03-27T08:46:20.586Z,6.35
2017-03-27T08:47:24.592Z,6.92
2017-03-27T08:48:28.823Z,9.78
2017-03-27T08:49:32.943Z,9.85
2017-03-27T08:50:36.962Z,13.95
2017-03-27T08:51:40.860Z,8.98
2017-03-27T08:52:44.648Z,9.22
2017-03-27T08:53:48.675Z,4.70
2017-03-27T08:54:52.569Z,8.03
2017-03-27T08:55:56.954Z,6.98
2017-03-27T08:57:00.950Z,9.28
2017-03-27T08:58:04.973Z,8.98
2017-03-27T08:59:08.539Z,13.18
2017-03-27T09:00:12.065Z,8.07
2017-03-27T09:01:16.145Z,11.67
2017-03-27T09:02:20.184Z,9.45
2017-03-27T09:03:24.430Z,11.07
2017-03-27T09:04:28.253Z,26.03
2017-03-27T09:05:32.717Z,16.58
2017-03-27T09:06:36.497Z,14.80
2017-03-27T09:07:40.419Z,11.82
2017-03-27T09:08:44.235Z,15.32
2017-03-27T09:09:48.077Z,9.22
2017-03-27T09:10:51.810Z,16.47
2017-03-27T09:11:55.657Z,11.28
2017-03-27T09:12:59.493Z,13.90
2017-03-27T09:14:04.296Z,12.85
2017-03-27T09:15:07.924Z,10.60
2017-03-27T09:16:11.402Z,12.87
2017-03-27T09:17:15.061Z,8.02
2017-03-27T09:18:18.925Z,12.28
2017-03-27T09:19:23.422Z,10.50
2017-03-27T09:20:27.366Z,11.02
2017-03-27T09:21:31.081Z,13.82
2017-03-27T09:22:34.791Z,8.87
2017-03-27T09:23:38.734Z,13.15
2017-03-27T09:24:42.737Z,8.20
2017-03-27T09:25:46.561Z,15.78
2017-03-27T09:26:50.495Z,10.82
2017-03-27T09:27:54.318Z,15.63
2017-03-27T09:28:58.305Z,17.67
2017-03-27T09:30:02.181Z,9.53
2017-03-27T09:31:06.761Z,10.40
2017-03-27T09:32:10.606Z,15.50
2017-03-27T09:33:14.400Z,8.85
2017-03-27T09:34:18.801Z,11.32
2017-03-27T09:35:22.687Z,11.45
2017-03-27T09:36:26.567Z,11.72
2017-03-27T09:37:29.918Z,15.67
2017-03-27T09:38:33.793Z,11.70
2017-03-27T09:39:37.515Z,10.38
2017-03-27T09:40:42.048Z,14.53
2017-03-27T09:41:45.894Z,14.55
2017-03-27T09:42:49.919Z,16.18
2017-03-27T09:43:53.717Z,16.20
2017-03-27T09:44:57.618Z,10.92
2017-03-27T09:46:01.389Z,10.15
2017-03-27T09:47:05.159Z,10.87
2017-03-27T09:48:08.787Z,7.52
2017-03-27T09:49:28.138Z,12.68
2017-03-27T09:50:32.786Z,11.52
2017-03-27T09:51:36.814Z,14.92
2017-03-27T09:52:40.601Z,12.70
2017-03-27T09:53:44.251Z,9.47
2017-03-27T09:54:48.045Z,8.53
2017-03-27T09:55:51.764Z,16.70
2017-03-27T09:56:55.664Z,7.87
2017-03-27T09:57:59.337Z,11.22
2017-03-27T09:59:02.950Z,6.97
2017-03-27T10:00:06.494Z,10.60
2017-03-27T10:01:10.200Z,15.43
2017-03-27T10:02:13.885Z,7.35
2017-03-27T10:03:18.582Z,5.57
2017-03-27T10:04:22.246Z,11.75
2017-03-27T10:05:26.270Z,8.20
2017-03-27T10:06:31.053Z,9.03
2017-03-27T10:07:34.629Z,8.15
2017-03-27T10:08:38.605Z,8.92
2017-03-27T10:09:42.279Z,11.93
2017-03-27T10:10:46.219Z,10.98
2017-03-27T10:11:49.979Z,13.93
2017-03-27T10:12:53.888Z,10.70
2017-03-27T10:13:57.861Z,8.65
2017-03-27T10:15:01.569Z,10.03
2017-03-27T10:16:06.148Z,13.03
2017-03-27T10:17:10.061Z,16.22
2017-03-27T10:18:14.681Z,13.23
2017-03-27T10:19:18.461Z,6.67
2017-03-27T10:20:22.208Z,11.05
2017-03-27T10:21:26.165Z,6.05
2017-03-27T10:22:30.097Z,11.05
2017-03-27T10:23:34.510Z,12.33
2017-03-27T10:24:37.957Z,8.42
2017-03-27T10:25:42.044Z,9.18
2017-03-27T10:26:45.600Z,9.30
2017-03-27T10:27:49.244Z,8.15
2017-03-27T10:28:52.995Z,6.97
2017-03-27T10:29:57.038Z,11.93
2017-03-27T10:31:00.821Z,12.27
2017-03-27T10:32:04.693Z,12.30
2017-03-27T10:33:08.490Z,16.08
2017-03-27T10:34:12.271Z,12.67
2017-03-27T10:35:16.160Z,10.13
2017-03-27T10:36:19.944Z,7.93
2017-03-27T10:37:23.893Z,15.15
2017-03-27T10:38:27.648Z,11.97
2017-03-27T10:39:31.398Z,21.87
2017-03-27T10:40:35.076Z,19.17
2017-03-27T10:41:38.883Z,21.30
2017-03-27T10:42:42.790Z,18.03
2017-03-27T10:43:45.931Z,16.40
2017-03-27T10:44:49.146Z,12.33
2017-03-27T10:45:53.144Z,12.07
2017-03-27T10:46:57.123Z,13.98
2017-03-27T10:48:01.051Z,10.90
2017-03-27T10:49:04.985Z,14.87
2017-03-27T10:50:10.620Z,14.63
2017-03-27T10:51:14.573Z,13.85
2017-03-27T10:52:18.246Z,13.75
2017-03-27T10:53:22.091Z,8.58
2017-03-27T10:54:26.281Z,13.88
2017-03-27T10:55:30.070Z,11.07
2017-03-27T10:56:33.944Z,9.12
2017-03-27T10:57:37.446Z,10.37
2017-03-27T10:58:41.297Z,13.18
2017-03-27T10:59:45.081Z,9.02
2017-03-27T11:00:48.941Z,11.97
2017-03-27T11:01:52.799Z,8.95
2017-03-27T11:02:56.593Z,10.22
2017-03-27T11:04:00.457Z,11.87
2017-03-27T11:05:04.183Z,8.50
2017-03-27T11:06:08.365Z,9.95
2017-03-27T11:07:11.969Z,11.02
2017-03-27T11:08:16.853Z,11.88
2017-03-27T11:09:20.738Z,10.02
2017-03-27T11:10:24.365Z,6.50
2017-03-27T11:11:28.253Z,8.57
2017-03-27T11:12:31.849Z,8.53
2017-03-27T11:13:35.651Z,6.70
2017-03-27T11:14:39.209Z,8.37
2017-03-27T11:15:43.086Z,8.48
2017-03-27T11:16:47.216Z,7.17
2017-03-27T11:17:51.255Z,7.05
2017-03-27T11:18:55.708Z,12.10
2017-03-27T11:19:59.634Z,9.43
2017-03-27T11:21:03.485Z,7.57
2017-03-27T11:22:07.287Z,11.00
2017-03-27T11:23:11.948Z,14.67
2017-03-27T11:24:15.871Z,11.40
2017-03-27T11:25:20.326Z,11.00
2017-03-27T11:26:24.021Z,9.77
2017-03-27T11:27:27.834Z,9.40
2017-03-27T11:28:32.260Z,7.28
2017-03-27T11:29:36.184Z,10.82
2017-03-27T11:30:40.089Z,5.30
2017-03-27T11:31:44.190Z,8.08
2017-03-27T11:32:48.203Z,13.90
2017-03-27T11:33:52.208Z,12.27
2017-03-27T11:34:55.746Z,8.58
2017-03-27T11:36:00.250Z,10.48
2017-03-27T11:37:04.156Z,9.33
2017-03-27T11:38:07.804Z,14.47
2017-03-27T11:39:11.080Z,10.53
2017-03-27T11:40:15.036Z,9.48
2017-03-27T11:41:18.909Z,7.25
2017-03-27T11:42:22.725Z,10.88
2017-03-27T11:43:26.493Z,12.73
2017-03-27T11:44:30.697Z,10.28
2017-03-27T11:45:34.635Z,12.28
2017-03-27T11:46:38.631Z,11.07
2017-03-27T11:47:56.963Z,8.27
2017-03-27T11:49:00.715Z,13.73
2017-03-27T11:50:04.527Z,8.52
2017-03-27T11:51:09.153Z,10.07
2017-03-27T11:52:13.153Z,9.43
2017-03-27T11:53:16.797Z,10.73
2017-03-27T11:54:20.282Z,10.27
2017-03-27T11:55:24.030Z,13.55
2017-03-27T11:56:27.789Z,10.75
2017-03-27T11:57:31.862Z,9.68
2017-03-27T11:58:35.729Z,6.58
2017-03-27T11:59:39.497Z,9.35
2017-03-27T12:00:43.359Z,12.12
2017-03-27T12:01:47.287Z,5.38
2017-03-27T12:02:51.043Z,4.90
2017-03-27T12:03:54.945Z,6.30
2017-03-27T12:04:58.689Z,13.48
2017-03-27T12:06:02.466Z,9.92
2017-03-27T12:07:06.312Z,8.97
2017-03-27T12:08:10.354Z,9.90
2017-03-27T12:09:14.581Z,8.55
2017-03-27T12:10:18.387Z,5.48
2017-03-27T12:11:21.991Z,11.45
2017-03-27T12:12:25.630Z,10.20
2017-03-27T12:13:29.880Z,5.50
2017-03-27T12:14:33.893Z,6.50
2017-03-27T12:15:37.729Z,6.52
2017-03-27T12:16:42.357Z,10.47
2017-03-27T12:17:47.123Z,13.00
2017-03-27T12:18:50.822Z,8.05
2017-03-27T12:19:54.699Z,4.95
2017-03-27T12:20:58.779Z,5.82
2017-03-27T12:22:02.369Z,9.92
2017-03-27T12:23:06.248Z,14.18
2017-03-27T12:24:10.293Z,9.80
2017-03-27T12:25:14.471Z,11.63
2017-03-27T12:26:18.428Z,9.07
2017-03-27T12:27:22.391Z,10.43
2017-03-27T12:28:27.378Z,5.52
2017-03-27T12:29:31.310Z,10.87
2017-03-27T12:30:35.328Z,12.60
2017-03-27T12:31:39.279Z,11.47
2017-03-27T12:32:42.968Z,8.32
2017-03-27T12:33:47.449Z,12.30
2017-03-27T12:34:51.265Z,10.27
2017-03-27T12:35:55.526Z,9.43
2017-03-27T12:37:13.869Z,7.50
2017-03-27T12:38:17.038Z,8.63
2017-03-27T12:39:21.010Z,9.87
2017-03-27T12:40:25.836Z,9.03
2017-03-27T12:41:29.638Z,8.12
2017-03-27T12:42:33.620Z,7.67
2017-03-27T12:43:37.162Z,5.02
2017-03-27T12:44:41.072Z,6.25
2017-03-27T12:45:44.734Z,8.92
2017-03-27T12:46:48.630Z,11.02
2017-03-27T12:47:52.528Z,6.23
2017-03-27T12:48:56.490Z,4.95
2017-03-27T12:50:00.121Z,6.58
2017-03-27T12:51:04.868Z,9.75
2017-03-27T12:52:08.759Z,9.17
2017-03-27T12:53:12.507Z,9.08
2017-03-27T12:54:16.641Z,10.08
2017-03-27T12:55:20.723Z,13.52
2017-03-27T12:56:24.850Z,7.30
2017-03-27T12:57:28.728Z,10.38
2017-03-27T12:58:32.680Z,6.22
2017-03-27T12:59:36.576Z,11.83
2017-03-27T13:00:40.513Z,7.48
2017-03-27T13:01:44.279Z,7.20
2017-03-27T13:02:48.048Z,12.88
2017-03-27T13:03:51.787Z,10.12
2017-03-27T13:04:55.427Z,7.00
2017-03-27T13:05:59.308Z,12.78
2017-03-27T13:07:03.367Z,11.27
2017-03-27T13:08:07.000Z,17.05
2017-03-27T13:09:10.808Z,14.98
2017-03-27T13:10:14.567Z,7.10
2017-03-27T13:11:18.426Z,10.18
2017-03-27T13:12:22.362Z,9.78
2017-03-27T13:13:26.131Z,8.57
2017-03-27T13:14:29.932Z,8.70
2017-03-27T13:15:34.746Z,13.27
2017-03-27T13:16:38.585Z,8.65
2017-03-27T13:17:42.463Z,15.58
2017-03-27T13:18:46.093Z,14.15
2017-03-27T13:19:50.228Z,10.05
2017-03-27T13:20:54.186Z,11.75
2017-03-27T13:21:58.007Z,9.72
2017-03-27T13:23:01.171Z,10.30
2017-03-27T13:24:04.834Z,10.13
2017-03-27T13:25:08.592Z,12.83
2017-03-27T13:26:12.198Z,10.12
2017-03-27T13:27:15.986Z,19.82
2017-03-27T13:28:19.883Z,7.32
2017-03-27T13:29:23.761Z,12.20
2017-03-27T13:30:27.640Z,16.28
2017-03-27T13:31:31.232Z,10.12
2017-03-27T13:32:35.161Z,11.07
2017-03-27T13:33:40.400Z,15.00
2017-03-27T13:34:44.863Z,11.17
2017-03-27T13:35:48.685Z,4.97
2017-03-27T13:36:52.589Z,7.83
2017-03-27T13:37:56.656Z,5.45
2017-03-27T13:39:00.294Z,4.33
2017-03-27T13:40:04.299Z,9.00
2017-03-27T13:41:07.963Z,3.05
2017-03-27T13:42:11.872Z,3.22
2017-03-27T13:43:15.881Z,7.48
2017-03-27T13:44:19.689Z,9.57
2017-03-27T13:45:23.687Z,7.53
2017-03-27T13:46:27.745Z,6.40
2017-03-27T13:47:31.684Z,7.53
2017-03-27T13:48:35.673Z,4.52
2017-03-27T13:49:39.826Z,6.65
2017-03-27T13:50:43.628Z,10.32
2017-03-27T13:51:48.596Z,10.97
2017-03-27T13:52:52.094Z,3.80
2017-03-27T13:53:55.652Z,5.63